createdAt,value
2023-04-17T00:00:03.882Z,9.90
2023-04-17T00:05:09.968Z,9.80
2023-04-17T00:10:12.206Z,9.90
2023-04-17T00:15:14.175Z,9.90
2023-04-17T00:20:16.072Z,9.50
2023-04-17T00:25:17.874Z,10.00
2023-04-17T00:30:19.811Z,9.90
2023-04-17T00:35:21.713Z,9.90
2023-04-17T00:40:23.948Z,10.00
2023-04-17T00:45:25.760Z,10.00
2023-04-17T00:50:31.189Z,10.10
2023-04-17T00:55:35.544Z,10.10
2023-04-17T01:00:37.801Z,10.00
2023-04-17T01:05:40.280Z,10.00
2023-04-17T01:10:42.201Z,10.00
2023-04-17T01:15:44.838Z,10.00
2023-04-17T01:20:46.695Z,10.00
2023-04-17T01:25:48.520Z,10.00
2023-04-17T01:30:50.254Z,10.00
2023-04-17T01:35:52.010Z,9.90
2023-04-17T01:40:53.766Z,9.90
2023-04-17T01:45:55.579Z,9.90
2023-04-17T01:50:57.361Z,9.90
2023-04-17T01:56:01.698Z,9.90
2023-04-17T02:01:04.013Z,9.90
2023-04-17T02:06:06.089Z,9.80
2023-04-17T02:11:07.972Z,9.80
2023-04-17T02:16:11.811Z,9.80
2023-04-17T02:21:13.845Z,9.80
2023-04-17T02:26:16.068Z,9.90
2023-04-17T02:31:18.419Z,9.50
2023-04-17T02:36:20.372Z,9.70
2023-04-17T02:41:22.235Z,9.90
2023-04-17T02:46:24.205Z,9.80
2023-04-17T02:51:26.969Z,9.80
2023-04-17T02:56:28.961Z,9.80
2023-04-17T03:01:31.042Z,9.90
2023-04-17T03:06:33.636Z,9.90
2023-04-17T03:11:35.594Z,9.80
2023-04-17T03:16:37.433Z,9.60
2023-04-17T03:21:39.507Z,9.70
2023-04-17T03:26:41.366Z,9.70
2023-04-17T03:31:43.304Z,9.70
2023-04-17T03:36:45.395Z,9.70
2023-04-17T03:41:47.356Z,9.80
2023-04-17T03:46:49.214Z,9.80
2023-04-17T03:51:51.484Z,9.80
2023-04-17T03:56:53.656Z,9.80
2023-04-17T04:01:55.966Z,9.80
2023-04-17T04:06:58.164Z,9.80
2023-04-17T04:12:00.282Z,9.80
2023-04-17T04:17:02.247Z,9.90
2023-04-17T04:22:06.726Z,9.80
2023-04-17T04:27:09.346Z,9.80
2023-04-17T04:32:16.293Z,9.80
2023-04-17T04:37:22.116Z,9.70
2023-04-17T04:42:23.947Z,9.50
2023-04-17T04:47:25.810Z,9.70
2023-04-17T04:52:27.738Z,9.70
2023-04-17T04:57:29.556Z,9.70
2023-04-17T05:02:31.709Z,9.60
2023-04-17T05:07:33.622Z,9.70
2023-04-17T05:12:35.528Z,9.70
2023-04-17T05:17:37.574Z,9.60
2023-04-17T05:22:39.538Z,9.70
2023-04-17T05:27:41.458Z,9.70
2023-04-17T05:32:43.474Z,9.80
2023-04-17T05:37:45.494Z,9.60
2023-04-17T05:42:47.298Z,9.80
2023-04-17T05:47:49.176Z,9.80
2023-04-17T05:52:51.155Z,9.90
2023-04-17T05:57:52.994Z,9.00
2023-04-17T06:02:55.555Z,8.60
2023-04-17T06:07:57.556Z,8.50
2023-04-17T06:13:00.621Z,10.60
2023-04-17T06:18:02.496Z,8.50
2023-04-17T06:28:20.721Z,9.30
2023-04-17T06:33:24.511Z,9.60
2023-04-17T06:38:27.926Z,9.60
2023-04-17T06:43:29.743Z,9.70
2023-04-17T06:48:31.633Z,9.90
2023-04-17T06:53:33.491Z,10.00
2023-04-17T06:58:42.250Z,10.20
2023-04-17T07:03:44.620Z,10.20
2023-04-17T07:08:46.682Z,10.30
2023-04-17T07:13:48.437Z,10.30
2023-04-17T07:18:53.113Z,10.20
2023-04-17T07:23:55.110Z,10.30
2023-04-17T07:28:56.918Z,10.70
2023-04-17T07:33:58.790Z,10.30
2023-04-17T07:39:00.532Z,10.30
2023-04-17T07:44:05.875Z,10.30
2023-04-17T07:49:11.453Z,10.30
2023-04-17T07:54:13.945Z,10.40
2023-04-17T07:59:16.855Z,8.20
2023-04-17T08:04:18.770Z,10.40
2023-04-17T08:09:22.207Z,10.50
2023-04-17T08:14:24.228Z,10.40
2023-04-17T08:19:26.182Z,10.30
2023-04-17T08:24:28.095Z,10.50
2023-04-17T08:29:30.157Z,10.30
2023-04-17T08:34:32.828Z,10.30
2023-04-17T08:39:34.627Z,10.30
2023-04-17T08:44:36.966Z,10.30
2023-04-17T08:49:44.163Z,10.30
2023-04-17T08:54:48.929Z,10.50
2023-04-17T08:59:52.404Z,10.70
2023-04-17T09:04:54.242Z,10.70
2023-04-17T09:09:57.081Z,10.90
2023-04-17T09:14:58.931Z,10.90
2023-04-17T09:20:09.401Z,11.10
2023-04-17T09:25:21.457Z,13.60
2023-04-17T09:30:25.446Z,11.40
2023-04-17T09:35:27.301Z,11.40
2023-04-17T09:40:38.358Z,11.60
2023-04-17T09:45:42.843Z,11.80
2023-04-17T09:50:45.100Z,12.00
2023-04-17T09:55:50.294Z,12.10
2023-04-17T10:00:55.576Z,12.30
2023-04-17T10:05:57.968Z,12.70
2023-04-17T10:11:07.613Z,13.10
2023-04-17T10:16:09.667Z,13.30
2023-04-17T10:21:23.052Z,12.80
2023-04-17T10:26:24.983Z,13.20
2023-04-17T10:32:04.661Z,13.50
2023-04-17T10:37:06.606Z,13.70
2023-04-17T10:42:08.635Z,13.50
2023-04-17T10:52:32.791Z,11.40
2023-04-17T10:57:53.486Z,12.50
2023-04-17T11:02:55.729Z,12.20
2023-04-17T11:07:58.726Z,12.20
2023-04-17T11:13:00.958Z,12.20
2023-04-17T11:18:03.946Z,12.10
2023-04-17T11:23:06.779Z,12.20
2023-04-17T11:28:08.750Z,12.10
2023-04-17T11:33:12.981Z,11.90
2023-04-17T11:38:20.777Z,12.30
2023-04-17T11:43:23.990Z,12.70
2023-04-17T11:48:27.875Z,12.50
2023-04-17T11:53:30.676Z,12.60
2023-04-17T11:58:32.429Z,12.80
2023-04-17T12:03:36.025Z,12.80
2023-04-17T12:08:50.201Z,12.80
2023-04-17T12:13:55.710Z,12.60
2023-04-17T12:18:57.973Z,13.00
2023-04-17T12:23:59.718Z,13.20
2023-04-17T12:29:01.549Z,13.30
2023-04-17T12:34:03.339Z,13.70
2023-04-17T12:39:05.191Z,15.30
2023-04-17T12:44:06.968Z,15.50
2023-04-17T12:49:09.090Z,15.90
2023-04-17T12:54:11.117Z,15.10
2023-04-17T12:59:13.344Z,15.30
2023-04-17T13:04:15.749Z,15.60
2023-04-17T13:09:18.072Z,15.30
2023-04-17T13:14:19.922Z,15.90
2023-04-17T13:19:22.138Z,15.20
2023-04-17T13:24:23.938Z,14.60
2023-04-17T13:29:25.931Z,14.60
2023-04-17T13:34:28.033Z,14.40
2023-04-17T13:39:29.960Z,13.90
2023-04-17T13:44:32.277Z,13.80
2023-04-17T13:49:34.113Z,13.70
2023-04-17T13:54:35.908Z,13.70
2023-04-17T13:59:37.815Z,13.50
2023-04-17T14:04:39.705Z,13.60
2023-04-17T14:09:41.651Z,13.60
2023-04-17T14:14:43.453Z,13.40
2023-04-17T14:19:45.313Z,13.60
2023-04-17T14:24:47.124Z,13.50
2023-04-17T14:29:48.959Z,13.60
2023-04-17T14:34:50.758Z,13.70
2023-04-17T14:39:52.782Z,13.40
2023-04-17T14:44:54.852Z,13.40
2023-04-17T14:49:56.705Z,13.40
2023-04-17T14:54:58.602Z,13.60
2023-04-17T15:00:00.935Z,13.60
2023-04-17T15:05:02.771Z,13.30
2023-04-17T15:10:05.074Z,13.80
2023-04-17T15:15:08.536Z,13.70
2023-04-17T15:20:10.885Z,13.70
2023-04-17T15:25:12.736Z,13.70
2023-04-17T15:30:15.069Z,13.90
2023-04-17T15:35:16.964Z,13.90
2023-04-17T15:40:18.811Z,12.90
2023-04-17T15:45:20.766Z,13.00
2023-04-17T15:50:22.679Z,13.00
2023-04-17T15:55:24.427Z,13.50
2023-04-17T16:00:26.349Z,13.10
2023-04-17T16:05:30.195Z,13.30
2023-04-17T16:10:32.201Z,12.90
2023-04-17T16:15:33.995Z,13.10
2023-04-17T16:20:36.129Z,13.10
2023-04-17T16:25:38.275Z,13.20
2023-04-17T16:30:40.158Z,13.10
2023-04-17T16:35:41.973Z,12.90
2023-04-17T16:40:43.806Z,12.80
2023-04-17T16:45:45.578Z,12.70
2023-04-17T16:50:47.398Z,12.70
2023-04-17T16:55:49.288Z,12.60
2023-04-17T17:00:51.534Z,12.40
2023-04-17T17:05:53.485Z,12.20
2023-04-17T17:10:55.580Z,12.20
2023-04-17T17:15:57.485Z,12.10
2023-04-17T17:21:01.084Z,12.10
2023-04-17T17:26:02.935Z,11.90
2023-04-17T17:31:07.954Z,11.70
2023-04-17T17:36:11.636Z,11.60
2023-04-17T17:41:13.454Z,11.80
2023-04-17T17:46:15.369Z,11.60
2023-04-17T17:51:17.275Z,11.50
2023-04-17T17:56:20.738Z,11.40
2023-04-17T18:01:24.859Z,11.30
2023-04-17T18:06:27.835Z,11.20
2023-04-17T18:11:29.656Z,11.10
2023-04-17T18:16:32.801Z,11.10
2023-04-17T18:21:34.839Z,11.00
2023-04-17T18:26:36.632Z,11.00
2023-04-17T18:31:38.488Z,10.90
2023-04-17T18:36:40.286Z,10.80
2023-04-17T18:41:42.005Z,10.80
2023-04-17T18:46:43.773Z,10.80
2023-04-17T18:51:47.938Z,10.60
2023-04-17T18:56:49.978Z,10.50
2023-04-17T19:01:52.426Z,10.30
2023-04-17T19:06:54.275Z,10.40
2023-04-17T19:11:56.534Z,10.50
2023-04-17T19:16:58.750Z,10.40
2023-04-17T19:22:01.122Z,10.20
2023-04-17T19:27:02.952Z,10.20
2023-04-17T19:32:05.012Z,10.20
2023-04-17T19:37:06.878Z,10.20
2023-04-17T19:42:08.652Z,10.10
2023-04-17T19:47:10.562Z,10.10
2023-04-17T19:52:12.691Z,10.00
2023-04-17T19:57:14.730Z,9.90
2023-04-17T20:02:18.133Z,9.90
2023-04-17T20:07:19.968Z,9.90
2023-04-17T20:12:21.708Z,10.00
2023-04-17T20:17:23.533Z,10.00
2023-04-17T20:22:25.809Z,9.90
2023-04-17T20:27:27.626Z,10.00
2023-04-17T20:32:29.429Z,10.10
2023-04-17T20:37:31.349Z,10.00
2023-04-17T20:42:33.238Z,10.00
2023-04-17T20:47:37.435Z,10.00
2023-04-17T20:52:39.594Z,10.00
2023-04-17T20:57:41.321Z,10.00
2023-04-17T21:02:43.760Z,10.10
2023-04-17T21:07:46.035Z,10.00
2023-04-17T21:12:47.916Z,10.00
2023-04-17T21:17:49.819Z,9.90
2023-04-17T21:22:51.636Z,10.10
2023-04-17T21:27:53.452Z,10.00
2023-04-17T21:32:55.470Z,9.90
2023-04-17T21:37:57.530Z,9.80
2023-04-17T21:43:00.780Z,9.90
2023-04-17T21:48:03.403Z,10.00
2023-04-17T21:53:05.310Z,9.90
2023-04-17T21:58:07.527Z,9.70
2023-04-17T22:03:09.435Z,9.80
2023-04-17T22:08:11.260Z,10.00
2023-04-17T22:13:15.650Z,9.80
2023-04-17T22:18:17.431Z,9.80
2023-04-17T22:23:19.165Z,9.80
2023-04-17T22:28:20.924Z,9.80
2023-04-17T22:33:22.762Z,9.80
2023-04-17T22:38:24.499Z,9.80
2023-04-17T22:43:27.118Z,9.80
2023-04-17T22:48:28.958Z,9.60
2023-04-17T22:53:31.423Z,9.70
2023-04-17T22:58:34.572Z,9.80
2023-04-17T23:03:36.357Z,9.70
2023-04-17T23:08:38.173Z,9.60
2023-04-17T23:13:40.026Z,9.60
2023-04-17T23:18:41.808Z,9.60
2023-04-17T23:23:43.632Z,9.50
2023-04-17T23:28:49.945Z,9.30
2023-04-17T23:33:51.774Z,9.10
2023-04-17T23:38:53.960Z,9.10
2023-04-17T23:43:56.220Z,6.50
2023-04-17T23:48:58.029Z,8.70
2023-04-17T23:54:00.483Z,8.70
2023-04-17T23:59:02.362Z,8.80
